createdAt,value
2019-02-10T00:00:37.164Z,97368.34
2019-02-10T00:03:05.342Z,97379.41
2019-02-10T00:05:33.517Z,97376.86
2019-02-10T00:08:01.703Z,97373.44
2019-02-10T00:10:29.875Z,97366.66
2019-02-10T00:13:29.047Z,97361.97
2019-02-10T00:15:59.924Z,97364.55
2019-02-10T00:18:28.100Z,97364.55
2019-02-10T00:20:56.267Z,97366.23
2019-02-10T00:23:24.454Z,97364.95
2019-02-10T00:25:52.633Z,97361.13
2019-02-10T00:28:20.812Z,97353.05
2019-02-10T00:30:48.982Z,97354.33
2019-02-10T00:33:17.149Z,97355.20
2019-02-10T00:35:45.408Z,97355.19
2019-02-10T00:38:13.574Z,97353.05
2019-02-10T00:40:41.754Z,97353.05
2019-02-10T00:43:09.946Z,97342.84
2019-02-10T00:45:38.122Z,97338.19
2019-02-10T00:48:06.311Z,97335.64
2019-02-10T00:50:34.488Z,97333.09
2019-02-10T00:53:02.675Z,97338.63
2019-02-10T00:55:30.842Z,97330.55
2019-02-10T00:57:59.050Z,97324.63
2019-02-10T01:00:27.238Z,97322.52
2019-02-10T01:02:55.412Z,97310.61
2019-02-10T01:05:23.592Z,97312.33
2019-02-10T01:07:52.030Z,97314.88
2019-02-10T01:10:20.988Z,97314.00
2019-02-10T01:12:49.169Z,97314.01
2019-02-10T01:15:17.347Z,97314.88
2019-02-10T01:17:45.535Z,97314.45
2019-02-10T01:20:13.715Z,97307.67
2019-02-10T01:22:41.893Z,97297.05
2019-02-10T01:25:10.066Z,97298.77
2019-02-10T01:27:38.239Z,97298.77
2019-02-10T01:30:09.808Z,97291.96
2019-02-10T01:32:38.026Z,97283.48
2019-02-10T01:35:06.157Z,97288.58
2019-02-10T01:37:34.333Z,97286.87
2019-02-10T01:40:02.534Z,97287.70
2019-02-10T01:42:30.707Z,97282.61
2019-02-10T01:44:58.886Z,97272.86
2019-02-10T01:47:27.064Z,97270.31
2019-02-10T01:49:55.243Z,97266.92
2019-02-10T01:52:23.416Z,97261.83
2019-02-10T01:54:51.611Z,97258.01
2019-02-10T01:57:19.793Z,97252.05
2019-02-10T01:59:47.963Z,97247.82
2019-02-10T02:02:16.138Z,97254.59
2019-02-10T02:04:44.391Z,97251.64
2019-02-10T02:07:12.580Z,97246.55
2019-02-10T02:09:40.771Z,97247.39
2019-02-10T02:12:09.116Z,97244.41
2019-02-10T02:14:37.298Z,97228.29
2019-02-10T02:17:05.479Z,97219.81
2019-02-10T02:19:33.667Z,97213.45
2019-02-10T02:22:01.841Z,97205.38
2019-02-10T02:24:30.054Z,97207.09
2019-02-10T02:26:58.232Z,97202.44
2019-02-10T02:29:26.408Z,97202.00
2019-02-10T02:31:54.580Z,97192.25
2019-02-10T02:34:22.752Z,97187.16
2019-02-10T02:36:50.932Z,97185.02
2019-02-10T02:39:19.120Z,97179.52
2019-02-10T02:41:47.308Z,97162.53
2019-02-10T02:44:15.502Z,97153.62
2019-02-10T02:46:43.685Z,97143.43
2019-02-10T02:49:11.859Z,97138.34
2019-02-10T02:51:40.047Z,97127.33
2019-02-10T02:54:08.228Z,97129.88
2019-02-10T02:56:36.439Z,97128.17
2019-02-10T02:59:04.620Z,97138.78
2019-02-10T03:01:32.795Z,97152.80
2019-02-10T03:04:00.971Z,97150.25
2019-02-10T03:06:30.793Z,97132.42
2019-02-10T03:09:00.605Z,97135.80
2019-02-10T03:11:28.789Z,97130.27
2019-02-10T03:13:58.628Z,97130.70
2019-02-10T03:16:26.809Z,97119.68
2019-02-10T03:18:54.993Z,97126.05
2019-02-10T03:21:23.230Z,97110.77
2019-02-10T03:23:51.411Z,97123.06
2019-02-10T03:26:19.624Z,97122.23
2019-02-10T03:28:47.828Z,97115.86
2019-02-10T03:31:16.016Z,97120.08
2019-02-10T03:33:44.198Z,97111.61
2019-02-10T03:36:12.461Z,97112.04
2019-02-10T03:38:40.650Z,97112.88
2019-02-10T03:41:08.845Z,97104.41
2019-02-10T03:43:37.021Z,97101.44
2019-02-10T03:46:05.217Z,97088.27
2019-02-10T03:48:33.384Z,97070.89
2019-02-10T03:51:01.569Z,97070.89
2019-02-10T03:53:29.792Z,97066.64
2019-02-10T03:55:57.975Z,97067.08
2019-02-10T03:58:26.159Z,97060.28
2019-02-10T04:00:54.362Z,97064.53
2019-02-10T04:03:22.548Z,97067.92
2019-02-10T04:05:50.729Z,97067.92
2019-02-10T04:08:18.907Z,97067.92
2019-02-10T04:10:47.115Z,97064.10
2019-02-10T04:13:15.293Z,97060.72
2019-02-10T04:15:43.476Z,97046.72
2019-02-10T04:18:11.659Z,97054.35
2019-02-10T04:20:39.837Z,97051.36
2019-02-10T04:23:09.382Z,97037.79
2019-02-10T04:25:37.566Z,97030.16
2019-02-10T04:28:05.750Z,97021.67
2019-02-10T04:30:33.951Z,97028.42
2019-02-10T04:33:02.163Z,97016.14
2019-02-10T04:35:30.368Z,97022.50
2019-02-10T04:37:58.550Z,97020.38
2019-02-10T04:40:26.723Z,97015.30
2019-02-10T04:42:54.968Z,97032.25
2019-02-10T04:45:23.187Z,97018.68
2019-02-10T04:47:51.360Z,97019.12
2019-02-10T04:50:19.588Z,97018.68
2019-02-10T04:52:47.877Z,97015.30
2019-02-10T04:55:16.066Z,97012.31
2019-02-10T04:57:44.243Z,96991.95
2019-02-10T05:00:12.451Z,97001.70
2019-02-10T05:02:40.669Z,97000.88
2019-02-10T05:05:08.852Z,96988.14
2019-02-10T05:07:37.143Z,96980.50
2019-02-10T05:10:05.634Z,96968.62
2019-02-10T05:12:33.815Z,96971.16
2019-02-10T05:15:02.001Z,96955.48
2019-02-10T05:17:30.213Z,96952.52
2019-02-10T05:19:58.426Z,96944.43
2019-02-10T05:22:26.687Z,96941.88
2019-02-10T05:24:54.914Z,96935.52
2019-02-10T05:27:23.114Z,96913.46
2019-02-10T05:29:51.324Z,96925.75
2019-02-10T05:32:19.513Z,96902.40
2019-02-10T05:34:47.737Z,96898.19
2019-02-10T05:37:15.953Z,96899.03
2019-02-10T05:39:44.132Z,96903.69
2019-02-10T05:42:12.353Z,96905.83
2019-02-10T05:44:40.527Z,96904.57
2019-02-10T05:47:08.707Z,96909.23
2019-02-10T05:49:36.883Z,96904.16
2019-02-10T05:52:05.103Z,96895.23
2019-02-10T05:54:33.278Z,96890.59
2019-02-10T05:57:01.468Z,96881.67
2019-02-10T05:59:29.645Z,96882.95
2019-02-10T06:02:07.463Z,96879.53
2019-02-10T06:04:38.992Z,96868.52
2019-02-10T06:07:13.131Z,96853.24
2019-02-10T06:09:41.343Z,96847.31
2019-02-10T06:12:09.554Z,96854.06
2019-02-10T06:14:37.737Z,96848.98
2019-02-10T06:17:05.945Z,96838.78
2019-02-10T06:19:34.126Z,96811.64
2019-02-10T06:22:02.303Z,96808.22
2019-02-10T06:24:30.485Z,96815.86
2019-02-10T06:26:58.667Z,96832.41
2019-02-10T06:29:26.880Z,96823.09
2019-02-10T06:31:55.089Z,96795.92
2019-02-10T06:34:23.300Z,96807.37
2019-02-10T06:36:51.510Z,96802.70
2019-02-10T06:39:19.692Z,96804.38
2019-02-10T06:41:47.893Z,96812.87
2019-02-10T06:44:16.079Z,96824.72
2019-02-10T06:46:44.260Z,96835.33
2019-02-10T06:49:12.437Z,96840.42
2019-02-10T06:51:40.613Z,96857.41
2019-02-10T06:54:08.798Z,96855.69
2019-02-10T06:56:36.985Z,96839.56
2019-02-10T06:59:06.805Z,96832.31
2019-02-10T07:01:39.528Z,96839.11
2019-02-10T07:04:10.910Z,96835.27
2019-02-10T07:06:39.085Z,96836.11
2019-02-10T07:09:07.269Z,96798.73
2019-02-10T07:11:35.439Z,96782.60
2019-02-10T07:14:03.628Z,96782.16
2019-02-10T07:16:43.879Z,96747.77
2019-02-10T07:19:48.340Z,96747.73
2019-02-10T07:22:34.747Z,96756.21
2019-02-10T07:25:15.141Z,96750.65
2019-02-10T07:27:43.860Z,96737.42
2019-02-10T07:30:18.298Z,96731.02
2019-02-10T07:32:55.288Z,96722.07
2019-02-10T07:35:45.029Z,96711.39
2019-02-10T07:38:38.525Z,96706.68
2019-02-10T07:41:29.919Z,96701.92
2019-02-10T07:44:13.433Z,96692.95
2019-02-10T07:47:07.452Z,96683.56
2019-02-10T07:49:47.634Z,96687.73
2019-02-10T07:52:31.181Z,96693.22
2019-02-10T07:55:05.336Z,96704.19
2019-02-10T07:57:52.891Z,96714.75
2019-02-10T08:00:27.164Z,96707.01
2019-02-10T08:03:21.104Z,96706.91
2019-02-10T08:06:08.947Z,96691.55
2019-02-10T08:08:52.788Z,96683.80
2019-02-10T08:11:45.412Z,96665.02
2019-02-10T08:14:16.851Z,96672.58
2019-02-10T08:17:00.109Z,96674.56
2019-02-10T08:19:55.976Z,96686.81
2019-02-10T08:22:44.276Z,96669.32
2019-02-10T08:25:18.396Z,96672.21
2019-02-10T08:27:49.891Z,96672.16
2019-02-10T08:30:33.022Z,96678.08
2019-02-10T08:33:13.166Z,96675.89
2019-02-10T08:35:53.574Z,96671.97
2019-02-10T08:38:42.552Z,96687.20
2019-02-10T08:41:19.746Z,96675.17
2019-02-10T08:44:12.114Z,96684.50
2019-02-10T08:46:58.552Z,96694.22
2019-02-10T08:49:32.753Z,96668.23
2019-02-10T08:52:21.988Z,96647.81
2019-02-10T08:54:50.202Z,96641.02
2019-02-10T08:57:18.415Z,96636.25
2019-02-10T08:59:46.586Z,96621.39
2019-02-10T09:02:14.800Z,96604.41
2019-02-10T09:04:42.972Z,96608.63
2019-02-10T09:07:11.142Z,96604.33
2019-02-10T09:09:39.335Z,96583.40
2019-02-10T09:12:07.541Z,96576.60
2019-02-10T09:14:35.743Z,96582.45
2019-02-10T09:17:03.947Z,96584.47
2019-02-10T09:19:32.151Z,96594.92
2019-02-10T09:22:00.324Z,96610.07
2019-02-10T09:24:28.498Z,96628.22
2019-02-10T09:26:56.672Z,96617.44
2019-02-10T09:29:24.843Z,96605.81
2019-02-10T09:31:53.019Z,96599.27
2019-02-10T09:34:21.191Z,96593.22
2019-02-10T09:36:49.372Z,96583.19
2019-02-10T09:39:17.583Z,96578.80
2019-02-10T09:41:45.770Z,96583.40
2019-02-10T09:44:13.930Z,96586.27
2019-02-10T09:46:42.131Z,96583.64
2019-02-10T09:49:10.376Z,96602.27
2019-02-10T09:51:38.584Z,96577.84
2019-02-10T09:54:06.868Z,96579.94
2019-02-10T09:56:35.042Z,96596.33
2019-02-10T09:59:03.214Z,96586.30
2019-02-10T10:01:31.390Z,96572.79
2019-02-10T10:03:59.573Z,96572.23
2019-02-10T10:06:27.770Z,96571.28
2019-02-10T10:08:55.971Z,96575.80
2019-02-10T10:11:24.143Z,96560.74
2019-02-10T10:13:55.201Z,96559.53
2019-02-10T10:16:23.444Z,96550.73
2019-02-10T10:18:51.619Z,96541.83
2019-02-10T10:21:19.800Z,96549.26
2019-02-10T10:23:48.013Z,96543.10
2019-02-10T10:26:16.206Z,96519.54
2019-02-10T10:28:44.442Z,96519.36
2019-02-10T10:31:12.614Z,96518.33
2019-02-10T10:33:40.795Z,96529.32
2019-02-10T10:36:08.967Z,96507.27
2019-02-10T10:38:37.148Z,96458.61
2019-02-10T10:41:05.326Z,96444.00
2019-02-10T10:43:33.591Z,96435.72
2019-02-10T10:46:01.762Z,96410.77
2019-02-10T10:48:29.951Z,96404.66
2019-02-10T10:50:58.159Z,96404.36
2019-02-10T10:53:26.347Z,96383.12
2019-02-10T10:55:54.552Z,96381.84
2019-02-10T10:58:22.730Z,96367.88
2019-02-10T11:00:50.911Z,96349.70
2019-02-10T11:03:19.124Z,96334.58
2019-02-10T11:05:47.319Z,96333.95
2019-02-10T11:08:15.502Z,96333.52
2019-02-10T11:10:43.707Z,96330.08
2019-02-10T11:13:11.890Z,96314.02
2019-02-10T11:15:40.067Z,96300.06
2019-02-10T11:18:08.251Z,96293.77
2019-02-10T11:20:36.447Z,96278.23
2019-02-10T11:23:04.644Z,96268.59
2019-02-10T11:25:32.820Z,96253.05
2019-02-10T11:28:01.036Z,96236.96
2019-02-10T11:30:29.228Z,96231.98
2019-02-10T11:32:58.379Z,96216.66
2019-02-10T11:35:26.551Z,96207.75
2019-02-10T11:37:54.754Z,96205.19
2019-02-10T11:40:22.971Z,96203.69
2019-02-10T11:42:51.199Z,96202.56
2019-02-10T11:45:19.427Z,96193.14
2019-02-10T11:47:47.604Z,96183.59
2019-02-10T11:50:15.788Z,96179.70
2019-02-10T11:52:43.972Z,96173.61
2019-02-10T11:55:12.179Z,96172.57
2019-02-10T11:57:40.391Z,96164.51
2019-02-10T12:00:16.800Z,96164.55
2019-02-10T12:02:44.999Z,96161.55
2019-02-10T12:05:13.201Z,96150.05
2019-02-10T12:07:41.389Z,96143.41
2019-02-10T12:10:11.968Z,96135.20
2019-02-10T12:12:40.190Z,96132.03
2019-02-10T12:15:10.596Z,96127.55
2019-02-10T12:17:38.794Z,96120.14
2019-02-10T12:20:10.196Z,96121.22
2019-02-10T12:22:38.412Z,96123.36
2019-02-10T12:25:07.885Z,96105.41
2019-02-10T12:27:36.684Z,96090.13
2019-02-10T12:30:14.011Z,96100.91
2019-02-10T12:32:42.184Z,96105.00
2019-02-10T12:35:12.822Z,96095.84
2019-02-10T12:37:41.000Z,96091.58
2019-02-10T12:40:10.421Z,96078.95
2019-02-10T12:42:38.635Z,96070.30
2019-02-10T12:45:09.171Z,96060.38
2019-02-10T12:47:37.349Z,96048.17
2019-02-10T12:50:11.221Z,96064.81
2019-02-10T12:52:39.439Z,96069.05
2019-02-10T12:55:08.764Z,96062.11
2019-02-10T12:57:36.943Z,96061.85
2019-02-10T13:00:13.688Z,96043.74
2019-02-10T13:02:41.893Z,96033.99
2019-02-10T13:05:10.195Z,96031.16
2019-02-10T13:07:40.941Z,96026.68
2019-02-10T13:10:11.952Z,96026.61
2019-02-10T13:12:40.128Z,96017.81
2019-02-10T13:15:09.845Z,96002.14
2019-02-10T13:17:38.116Z,96009.09
2019-02-10T13:20:09.057Z,95996.77
2019-02-10T13:22:37.306Z,95994.51
2019-02-10T13:25:08.037Z,95980.98
2019-02-10T13:27:36.271Z,95989.30
2019-02-10T13:30:07.546Z,95989.93
2019-02-10T13:32:35.771Z,95978.44
2019-02-10T13:35:04.379Z,95958.75
2019-02-10T13:37:32.622Z,95951.80
2019-02-10T13:40:01.256Z,95947.81
2019-02-10T13:42:29.525Z,95958.15
2019-02-10T13:44:58.118Z,95948.47
2019-02-10T13:47:33.446Z,95982.88
2019-02-10T13:50:06.014Z,95922.94
2019-02-10T13:52:36.581Z,95958.45
2019-02-10T13:55:06.897Z,95953.42
2019-02-10T13:57:38.047Z,95910.37
2019-02-10T14:00:18.079Z,95898.35
2019-02-10T14:02:46.301Z,95893.37
2019-02-10T14:05:14.561Z,95885.61
2019-02-10T14:07:43.036Z,95891.70
2019-02-10T14:10:13.538Z,95902.89
2019-02-10T14:12:42.189Z,95887.63
2019-02-10T14:15:15.320Z,95894.11
2019-02-10T14:17:46.714Z,95897.40
2019-02-10T14:20:23.465Z,95907.05
2019-02-10T14:22:51.685Z,95913.33
2019-02-10T14:25:20.054Z,95909.73
2019-02-10T14:27:48.254Z,95920.09
2019-02-10T14:30:24.021Z,95911.61
2019-02-10T14:32:52.201Z,95887.95
2019-02-10T14:35:20.367Z,95910.78
2019-02-10T14:37:48.539Z,95899.42
2019-02-10T14:40:16.715Z,95905.93
2019-02-10T14:42:44.886Z,95904.77
2019-02-10T14:45:14.328Z,95896.94
2019-02-10T14:47:42.499Z,95889.50
2019-02-10T14:50:17.050Z,95912.77
2019-02-10T14:52:46.219Z,95884.50
2019-02-10T14:55:14.426Z,95865.52
2019-02-10T14:57:42.635Z,95887.50
2019-02-10T15:00:14.801Z,95885.45
2019-02-10T15:02:42.976Z,95877.44
2019-02-10T15:05:11.225Z,95832.16
2019-02-10T15:07:47.710Z,95862.58
2019-02-10T15:10:18.168Z,95833.58
2019-02-10T15:12:46.358Z,95835.38
2019-02-10T15:15:14.573Z,95830.78
2019-02-10T15:17:44.722Z,95829.23
2019-02-10T15:20:13.766Z,95832.77
2019-02-10T15:22:41.952Z,95844.91
2019-02-10T15:25:13.838Z,95835.24
2019-02-10T15:27:42.042Z,95826.09
2019-02-10T15:30:15.333Z,95841.13
2019-02-10T15:32:44.443Z,95852.38
2019-02-10T15:35:12.614Z,95855.13
2019-02-10T15:37:40.806Z,95843.77
2019-02-10T15:40:10.632Z,95840.97
2019-02-10T15:42:38.815Z,95827.82
2019-02-10T15:45:12.113Z,95836.48
2019-02-10T15:47:40.310Z,95824.67
2019-02-10T15:50:14.489Z,95834.16
2019-02-10T15:52:42.664Z,95832.08
2019-02-10T15:55:12.192Z,95832.59
2019-02-10T15:57:40.372Z,95827.53
2019-02-10T16:00:11.907Z,95836.55
2019-02-10T16:02:40.104Z,95835.79
2019-02-10T16:05:08.278Z,95848.59
2019-02-10T16:07:36.452Z,95845.75
2019-02-10T16:10:09.227Z,95852.55
2019-02-10T16:12:37.514Z,95855.17
2019-02-10T16:15:07.535Z,95858.67
2019-02-10T16:17:35.742Z,95860.46
2019-02-10T16:20:06.262Z,95855.05
2019-02-10T16:22:34.450Z,95839.95
2019-02-10T16:25:02.615Z,95837.63
2019-02-10T16:27:30.817Z,95851.07
2019-02-10T16:29:58.995Z,95851.27
2019-02-10T16:32:27.203Z,95858.60
2019-02-10T16:34:55.385Z,95857.49
2019-02-10T16:37:23.587Z,95840.57
2019-02-10T16:39:51.802Z,95834.28
2019-02-10T16:42:20.003Z,95823.39
2019-02-10T16:44:48.289Z,95808.16
2019-02-10T16:47:16.471Z,95810.00
2019-02-10T16:49:44.706Z,95819.47
2019-02-10T16:52:12.908Z,95798.66
2019-02-10T16:54:41.086Z,95776.66
2019-02-10T16:57:09.298Z,95770.80
2019-02-10T16:59:43.281Z,95760.27
2019-02-10T17:02:11.469Z,95753.87
2019-02-10T17:04:40.542Z,95747.90
2019-02-10T17:07:08.720Z,95719.45
2019-02-10T17:09:37.821Z,95717.78
2019-02-10T17:12:06.004Z,95729.28
2019-02-10T17:14:34.200Z,95729.28
2019-02-10T17:17:02.381Z,95749.80
2019-02-10T17:19:30.599Z,95770.31
2019-02-10T17:21:58.774Z,95810.40
2019-02-10T17:24:27.006Z,95820.68
2019-02-10T17:26:55.242Z,95795.53
2019-02-10T17:29:24.208Z,95763.72
2019-02-10T17:31:52.388Z,95773.70
2019-02-10T17:34:20.581Z,95788.27
2019-02-10T17:36:48.779Z,95818.15
2019-02-10T17:39:16.949Z,95813.95
2019-02-10T17:41:45.520Z,95832.31
2019-02-10T17:44:15.655Z,95814.52
2019-02-10T17:46:43.874Z,95814.66
2019-02-10T17:49:12.053Z,95808.85
2019-02-10T17:51:40.231Z,95814.97
2019-02-10T17:54:08.407Z,95822.75
2019-02-10T17:56:36.590Z,95835.58
2019-02-10T17:59:04.769Z,95833.94
2019-02-10T18:01:32.955Z,95845.44
2019-02-10T18:04:01.173Z,95862.87
2019-02-10T18:06:29.361Z,95863.69
2019-02-10T18:08:57.590Z,95874.73
2019-02-10T18:11:30.895Z,95883.63
2019-02-10T18:13:55.722Z,95888.38
2019-02-10T18:16:28.286Z,95882.75
2019-02-10T18:19:04.071Z,95874.02
2019-02-10T18:21:33.891Z,95880.52
2019-02-10T18:24:06.695Z,95884.87
2019-02-10T18:26:39.295Z,95876.97
2019-02-10T18:29:25.407Z,95870.69
2019-02-10T18:31:58.133Z,95878.47
2019-02-10T18:34:36.730Z,95880.83
2019-02-10T18:37:22.998Z,95868.50
2019-02-10T18:40:08.937Z,95869.14
2019-02-10T18:42:50.952Z,95872.75
2019-02-10T18:45:23.827Z,95864.03
2019-02-10T18:47:59.351Z,95867.45
2019-02-10T18:50:29.300Z,95892.21
2019-02-10T18:53:01.765Z,95902.22
2019-02-10T18:55:31.573Z,95906.47
2019-02-10T18:58:17.874Z,95916.84
2019-02-10T19:01:04.134Z,95910.44
2019-02-10T19:03:36.909Z,95909.95
2019-02-10T19:06:18.457Z,95925.70
2019-02-10T19:09:04.448Z,95947.36
2019-02-10T19:11:50.843Z,95972.12
2019-02-10T19:14:30.803Z,95978.63
2019-02-10T19:17:00.620Z,95997.27
2019-02-10T19:19:30.436Z,95982.59
2019-02-10T19:22:00.295Z,95987.00
2019-02-10T19:24:30.198Z,96006.80
2019-02-10T19:27:02.533Z,96020.36
2019-02-10T19:29:32.348Z,96009.67
2019-02-10T19:32:04.497Z,96017.62
2019-02-10T19:34:50.451Z,96028.47
2019-02-10T19:37:29.493Z,96020.58
2019-02-10T19:40:05.241Z,96017.31
2019-02-10T19:42:35.053Z,96031.23
2019-02-10T19:45:06.115Z,96053.91
2019-02-10T19:47:35.928Z,96047.56
2019-02-10T19:50:07.271Z,96069.31
2019-02-10T19:52:43.061Z,96055.30
2019-02-10T19:55:21.942Z,96059.69
2019-02-10T19:57:57.474Z,96066.59
2019-02-10T20:00:27.310Z,96035.58
2019-02-10T20:02:59.934Z,96039.97
2019-02-10T20:05:29.749Z,96037.11
2019-02-10T20:07:59.695Z,96037.26
2019-02-10T20:10:34.965Z,96018.84
2019-02-10T20:13:07.792Z,96072.89
2019-02-10T20:15:55.934Z,96069.88
2019-02-10T20:18:31.693Z,96073.63
2019-02-10T20:21:03.918Z,96084.26
2019-02-10T20:23:35.682Z,96078.23
2019-02-10T20:26:38.409Z,96070.97
2019-02-10T20:29:08.214Z,96082.07
2019-02-10T20:31:50.337Z,96109.84
2019-02-10T20:34:25.987Z,96107.38
2019-02-10T20:36:58.588Z,96118.57
2019-02-10T20:39:28.345Z,96119.07
2019-02-10T20:41:58.218Z,96116.06
2019-02-10T20:44:33.424Z,96114.41
2019-02-10T20:47:06.004Z,96121.72
2019-02-10T20:49:35.853Z,96117.11
2019-02-10T20:52:05.826Z,96132.05
2019-02-10T20:54:38.355Z,96130.36
2019-02-10T20:57:16.954Z,96123.09
2019-02-10T20:59:52.556Z,96122.22
2019-02-10T21:02:25.080Z,96121.41
2019-02-10T21:04:57.654Z,96117.98
2019-02-10T21:07:44.104Z,96124.38
2019-02-10T21:10:25.096Z,96119.26
2019-02-10T21:12:54.901Z,96131.08
2019-02-10T21:15:36.988Z,96134.02
2019-02-10T21:18:06.799Z,96125.97
2019-02-10T21:20:36.681Z,96150.68
2019-02-10T21:23:06.445Z,96147.39
2019-02-10T21:25:42.002Z,96141.49
2019-02-10T21:28:23.680Z,96131.73
2019-02-10T21:31:08.238Z,96127.98
2019-02-10T21:33:38.046Z,96126.88
2019-02-10T21:36:07.885Z,96150.72
2019-02-10T21:38:40.379Z,96160.45
2019-02-10T21:41:15.687Z,96181.39
2019-02-10T21:43:51.100Z,96169.84
2019-02-10T21:46:29.670Z,96157.98
2019-02-10T21:48:59.318Z,96141.77
2019-02-10T21:51:27.496Z,96146.14
2019-02-10T21:53:55.667Z,96144.05
2019-02-10T21:56:23.837Z,96149.57
2019-02-10T21:58:52.018Z,96144.91
2019-02-10T22:01:20.217Z,96145.00
2019-02-10T22:03:48.424Z,96151.81
2019-02-10T22:06:16.749Z,96157.88
2019-02-10T22:08:44.853Z,96124.67
2019-02-10T22:11:13.024Z,96148.16
2019-02-10T22:13:41.231Z,96133.31
2019-02-10T22:16:09.676Z,96132.08
2019-02-10T22:18:37.864Z,96130.02
2019-02-10T22:21:06.060Z,96132.16
2019-02-10T22:23:34.314Z,96130.47
2019-02-10T22:26:02.492Z,96126.97
2019-02-10T22:28:30.668Z,96128.65
2019-02-10T22:30:58.835Z,96134.95
2019-02-10T22:33:27.004Z,96128.16
2019-02-10T22:35:55.212Z,96136.72
2019-02-10T22:38:23.377Z,96134.21
2019-02-10T22:40:51.582Z,96131.20
2019-02-10T22:43:19.763Z,96143.58
2019-02-10T22:45:47.926Z,96120.58
2019-02-10T22:48:16.162Z,96118.11
2019-02-10T22:50:44.328Z,96117.64
2019-02-10T22:53:12.497Z,96119.34
2019-02-10T22:55:40.669Z,96124.41
2019-02-10T22:58:08.838Z,96126.55
2019-02-10T23:00:43.879Z,96133.72
2019-02-10T23:03:12.222Z,96138.38
2019-02-10T23:05:40.428Z,96134.21
2019-02-10T23:08:08.633Z,96126.97
2019-02-10T23:10:36.793Z,96135.82
2019-02-10T23:13:04.961Z,96144.39
2019-02-10T23:15:33.132Z,96152.44
2019-02-10T23:18:01.309Z,96144.68
2019-02-10T23:20:29.509Z,96158.70
2019-02-10T23:22:57.714Z,96161.70
2019-02-10T23:25:25.895Z,96156.19
2019-02-10T23:27:54.068Z,96157.91
2019-02-10T23:30:22.239Z,96144.77
2019-02-10T23:35:17.755Z,96127.95
2019-02-10T23:37:45.923Z,96148.41
2019-02-10T23:40:14.132Z,96151.42
2019-02-10T23:42:42.337Z,96144.66
2019-02-10T23:45:10.504Z,96159.59
2019-02-10T23:47:38.693Z,96160.54
2019-02-10T23:50:07.838Z,96151.69
2019-02-10T23:52:35.971Z,96158.14
2019-02-10T23:55:04.677Z,96169.69
2019-02-10T23:57:32.858Z,96156.87
